createdAt,value
2023-04-14T00:00:06.463Z,10.94
2023-04-14T00:02:43.864Z,10.92
2023-04-14T00:05:12.377Z,10.89
2023-04-14T00:07:40.896Z,10.86
2023-04-14T00:10:09.959Z,10.81
2023-04-14T00:12:38.580Z,10.82
2023-04-14T00:15:07.105Z,10.82
2023-04-14T00:17:37.435Z,10.83
2023-04-14T00:20:06.596Z,10.79
2023-04-14T00:22:34.767Z,10.82
2023-04-14T00:25:04.122Z,10.79
2023-04-14T00:27:32.557Z,10.79
2023-04-14T00:30:00.516Z,10.82
2023-04-14T00:32:29.929Z,10.87
2023-04-14T00:35:00.251Z,10.83
2023-04-14T00:37:31.425Z,10.77
2023-04-14T00:40:01.053Z,10.75
2023-04-14T00:44:53.029Z,10.40
2023-04-14T00:47:22.277Z,10.69
2023-04-14T00:49:50.407Z,10.69
2023-04-14T00:52:18.091Z,10.68
2023-04-14T00:54:44.843Z,10.65
2023-04-14T00:57:11.809Z,10.67
2023-04-14T00:59:41.977Z,10.72
2023-04-14T01:02:09.154Z,10.72
2023-04-14T01:04:51.981Z,10.69
2023-04-14T01:07:21.741Z,10.63
2023-04-14T01:09:48.602Z,10.63
2023-04-14T01:12:39.922Z,10.61
2023-04-14T01:15:29.135Z,10.59
2023-04-14T01:18:08.185Z,10.50
2023-04-14T01:20:43.519Z,10.40
2023-04-14T01:23:18.134Z,10.35
2023-04-14T01:26:02.319Z,10.31
2023-04-14T01:28:58.298Z,10.28
2023-04-14T01:31:43.949Z,10.19
2023-04-14T01:34:26.787Z,10.13
2023-04-14T01:36:58.016Z,10.09
2023-04-14T01:39:34.276Z,10.06
2023-04-14T01:42:05.384Z,10.13
2023-04-14T01:44:32.374Z,10.09
2023-04-14T01:47:02.863Z,10.09
2023-04-14T01:49:31.162Z,10.09
2023-04-14T01:52:00.437Z,10.13
2023-04-14T01:54:28.957Z,10.16
2023-04-14T01:56:56.476Z,10.21
2023-04-14T01:59:23.489Z,10.20
2023-04-14T02:01:50.470Z,10.26
2023-04-14T02:04:22.314Z,10.27
2023-04-14T02:06:50.019Z,10.26
2023-04-14T02:09:17.083Z,10.30
2023-04-14T02:11:44.297Z,10.29
2023-04-14T02:14:11.040Z,10.33
2023-04-14T02:16:38.364Z,10.36
2023-04-14T02:19:05.551Z,10.39
2023-04-14T02:21:37.101Z,10.36
2023-04-14T02:24:04.488Z,10.37
2023-04-14T02:26:32.067Z,10.34
2023-04-14T02:29:02.788Z,10.33
2023-04-14T02:31:29.793Z,10.32
2023-04-14T02:33:56.478Z,10.30
2023-04-14T02:36:32.520Z,10.30
2023-04-14T02:39:09.882Z,10.37
2023-04-14T02:41:37.699Z,10.34
2023-04-14T02:44:17.069Z,10.32
2023-04-14T02:47:03.556Z,10.28
2023-04-14T02:49:39.717Z,10.28
2023-04-14T02:52:06.850Z,10.23
2023-04-14T02:54:35.991Z,10.19
2023-04-14T02:57:03.582Z,10.14
2023-04-14T02:59:31.747Z,10.09
2023-04-14T03:02:05.468Z,10.05
2023-04-14T03:04:34.850Z,10.03
2023-04-14T03:07:07.402Z,9.93
2023-04-14T03:09:34.293Z,9.95
2023-04-14T03:12:03.301Z,10.00
2023-04-14T03:14:31.227Z,9.98
2023-04-14T03:16:57.920Z,10.02
2023-04-14T03:19:24.989Z,10.05
2023-04-14T03:21:54.727Z,10.07
2023-04-14T03:24:24.045Z,10.00
2023-04-14T03:26:55.992Z,9.97
2023-04-14T03:29:27.043Z,9.97
2023-04-14T03:31:54.706Z,9.94
2023-04-14T03:34:22.988Z,9.94
2023-04-14T03:36:50.842Z,9.94
2023-04-14T03:39:18.950Z,9.94
2023-04-14T03:41:48.125Z,9.94
2023-04-14T03:44:15.951Z,9.92
2023-04-14T03:46:48.603Z,9.88
2023-04-14T03:49:16.712Z,9.87
2023-04-14T03:51:44.271Z,9.90
2023-04-14T03:54:11.301Z,9.90
2023-04-14T03:56:40.665Z,9.89
2023-04-14T03:59:11.966Z,9.90
2023-04-14T04:01:39.675Z,9.92
2023-04-14T04:04:07.752Z,9.92
2023-04-14T04:06:36.505Z,9.88
2023-04-14T04:09:03.394Z,9.86
2023-04-14T04:11:30.393Z,9.86
2023-04-14T04:13:58.881Z,9.91
2023-04-14T04:16:26.115Z,9.89
2023-04-14T04:18:52.705Z,9.88
2023-04-14T04:21:23.673Z,9.81
2023-04-14T04:23:53.772Z,9.85
2023-04-14T04:26:23.223Z,9.83
2023-04-14T04:28:57.280Z,9.84
2023-04-14T04:31:25.190Z,9.81
2023-04-14T04:33:51.984Z,9.78
2023-04-14T04:36:27.754Z,9.74
2023-04-14T04:38:56.395Z,9.77
2023-04-14T04:41:28.556Z,9.75
2023-04-14T04:43:56.267Z,9.81
2023-04-14T04:46:43.359Z,9.86
2023-04-14T04:49:12.209Z,9.91
2023-04-14T04:51:38.873Z,9.89
2023-04-14T04:54:06.017Z,9.91
2023-04-14T04:56:33.333Z,9.82
2023-04-14T04:59:00.269Z,9.86
2023-04-14T05:01:27.464Z,9.88
2023-04-14T05:03:54.810Z,9.80
2023-04-14T05:06:21.774Z,9.74
2023-04-14T05:08:53.558Z,9.85
2023-04-14T05:11:21.247Z,9.64
2023-04-14T05:13:47.859Z,9.79
2023-04-14T05:16:16.599Z,9.87
2023-04-14T05:18:45.983Z,9.83
2023-04-14T05:21:13.770Z,9.79
2023-04-14T05:23:43.016Z,9.72
2023-04-14T05:26:39.064Z,9.74
2023-04-14T05:29:02.958Z,9.83
2023-04-14T05:31:31.239Z,9.80
2023-04-14T05:33:57.874Z,9.82
2023-04-14T05:36:24.480Z,9.78
2023-04-14T05:38:51.377Z,9.78
2023-04-14T05:41:20.649Z,9.85
2023-04-14T05:43:47.411Z,9.77
2023-04-14T05:46:13.930Z,9.75
2023-04-14T05:48:41.104Z,9.77
2023-04-14T05:51:08.395Z,9.83
2023-04-14T05:53:34.976Z,9.84
2023-04-14T05:56:01.685Z,9.86
2023-04-14T05:58:28.767Z,9.96
2023-04-14T06:00:55.525Z,10.03
2023-04-14T06:03:31.137Z,9.98
2023-04-14T06:05:57.850Z,9.96
2023-04-14T06:08:24.906Z,10.03
2023-04-14T06:10:51.834Z,10.05
2023-04-14T06:13:22.382Z,10.11
2023-04-14T06:15:50.347Z,10.10
2023-04-14T06:18:22.344Z,9.98
2023-04-14T06:20:49.737Z,10.05
2023-04-14T06:23:16.439Z,10.14
2023-04-14T06:25:48.607Z,10.19
2023-04-14T06:28:15.540Z,10.21
2023-04-14T06:30:42.076Z,10.20
2023-04-14T06:33:08.861Z,10.17
2023-04-14T06:35:36.218Z,10.18
2023-04-14T06:38:02.793Z,10.17
2023-04-14T06:40:29.513Z,10.24
2023-04-14T06:42:56.626Z,10.28
2023-04-14T06:45:23.810Z,10.23
2023-04-14T06:47:50.933Z,10.24
2023-04-14T06:50:19.424Z,10.16
2023-04-14T06:52:48.720Z,10.22
2023-04-14T06:55:15.715Z,10.08
2023-04-14T06:57:46.270Z,10.16
2023-04-14T07:00:13.151Z,10.20
2023-04-14T07:02:41.423Z,10.16
2023-04-14T07:05:08.211Z,10.20
2023-04-14T07:07:36.753Z,10.21
2023-04-14T07:10:03.600Z,10.27
2023-04-14T07:12:30.716Z,10.31
2023-04-14T07:14:57.211Z,10.35
2023-04-14T07:17:23.856Z,10.37
2023-04-14T07:19:51.208Z,10.38
2023-04-14T07:22:17.875Z,10.34
2023-04-14T07:24:45.263Z,10.31
2023-04-14T07:27:14.512Z,10.27
2023-04-14T07:29:41.570Z,10.35
2023-04-14T07:32:12.632Z,10.41
2023-04-14T07:34:42.985Z,10.45
2023-04-14T07:37:10.474Z,10.47
2023-04-14T07:39:37.744Z,10.54
2023-04-14T07:42:04.964Z,10.65
2023-04-14T07:44:37.285Z,10.72
2023-04-14T07:47:03.845Z,10.76
2023-04-14T07:49:31.142Z,10.89
2023-04-14T07:51:57.820Z,11.03
2023-04-14T07:54:24.415Z,10.94
2023-04-14T07:56:51.008Z,10.89
2023-04-14T07:59:17.518Z,10.87
2023-04-14T08:01:44.392Z,10.87
2023-04-14T08:04:11.887Z,10.85
2023-04-14T08:06:43.552Z,10.93
2023-04-14T08:09:11.622Z,10.99
2023-04-14T08:11:38.374Z,10.93
2023-04-14T08:14:05.090Z,10.92
2023-04-14T08:16:35.859Z,10.88
2023-04-14T08:19:05.565Z,10.82
2023-04-14T08:21:32.786Z,10.81
2023-04-14T08:23:59.482Z,10.84
2023-04-14T08:26:27.970Z,10.92
2023-04-14T08:28:55.083Z,10.91
2023-04-14T08:31:22.388Z,10.91
2023-04-14T08:33:49.928Z,10.99
2023-04-14T08:36:16.534Z,11.04
2023-04-14T08:38:45.921Z,11.06
2023-04-14T08:41:13.123Z,11.04
2023-04-14T08:43:39.854Z,11.08
2023-04-14T08:46:10.952Z,11.13
2023-04-14T08:48:39.376Z,11.21
2023-04-14T08:51:21.793Z,11.20
2023-04-14T08:53:52.105Z,11.20
2023-04-14T08:56:18.711Z,11.18
2023-04-14T08:58:46.695Z,11.11
2023-04-14T09:01:14.764Z,11.16
2023-04-14T09:03:43.378Z,11.20
2023-04-14T09:06:10.274Z,11.24
2023-04-14T09:08:38.558Z,11.28
2023-04-14T09:11:06.228Z,11.20
2023-04-14T09:13:33.032Z,11.23
2023-04-14T09:16:01.084Z,11.27
2023-04-14T09:18:28.256Z,11.29
2023-04-14T09:21:29.366Z,11.37
2023-04-14T09:23:46.634Z,11.46
2023-04-14T09:26:13.407Z,11.56
2023-04-14T09:28:40.720Z,11.60
2023-04-14T09:31:10.814Z,11.63
2023-04-14T09:33:49.563Z,11.61
2023-04-14T09:36:22.798Z,11.63
2023-04-14T09:38:50.614Z,11.72
2023-04-14T09:41:19.283Z,11.70
2023-04-14T09:43:46.489Z,11.80
2023-04-14T09:46:14.840Z,11.71
2023-04-14T09:48:53.339Z,11.73
2023-04-14T09:51:27.143Z,11.72
2023-04-14T09:53:53.904Z,11.70
2023-04-14T09:56:27.751Z,11.63
2023-04-14T09:59:01.318Z,11.65
2023-04-14T10:01:33.336Z,11.68
2023-04-14T10:04:01.833Z,11.71
2023-04-14T10:06:33.188Z,11.75
2023-04-14T10:09:00.821Z,11.83
2023-04-14T10:11:29.592Z,11.89
2023-04-14T10:14:03.358Z,11.96
2023-04-14T10:16:31.146Z,12.04
2023-04-14T10:18:58.504Z,12.00
2023-04-14T10:21:27.626Z,12.08
2023-04-14T10:23:57.492Z,12.22
2023-04-14T10:26:24.788Z,12.36
2023-04-14T10:28:53.958Z,12.36
2023-04-14T10:31:25.944Z,12.33
2023-04-14T10:33:53.519Z,12.39
2023-04-14T10:36:28.276Z,12.28
2023-04-14T10:39:02.660Z,12.36
2023-04-14T10:41:42.223Z,12.35
2023-04-14T10:44:32.059Z,12.30
2023-04-14T10:47:01.373Z,12.23
2023-04-14T10:49:36.604Z,12.19
2023-04-14T10:52:06.105Z,12.19
2023-04-14T10:54:54.974Z,12.11
2023-04-14T10:57:22.850Z,11.99
2023-04-14T10:59:59.496Z,11.97
2023-04-14T11:02:31.448Z,11.96
2023-04-14T11:05:05.473Z,11.96
2023-04-14T11:07:58.794Z,11.99
2023-04-14T11:10:30.655Z,12.06
2023-04-14T11:13:03.114Z,12.00
2023-04-14T11:15:56.626Z,11.97
2023-04-14T11:18:29.341Z,11.92
2023-04-14T11:21:10.104Z,11.91
2023-04-14T11:23:40.482Z,11.78
2023-04-14T11:26:11.557Z,11.74
2023-04-14T11:28:45.569Z,11.86
2023-04-14T11:31:14.658Z,11.96
2023-04-14T11:33:41.317Z,11.99
2023-04-14T11:36:09.137Z,11.98
2023-04-14T11:38:39.777Z,12.02
2023-04-14T11:41:06.710Z,12.08
2023-04-14T11:43:38.111Z,12.12
2023-04-14T11:46:04.968Z,12.08
2023-04-14T11:48:33.178Z,12.00
2023-04-14T11:51:02.772Z,11.91
2023-04-14T11:53:29.752Z,12.02
2023-04-14T11:56:00.168Z,12.11
2023-04-14T11:58:28.159Z,12.21
2023-04-14T12:00:56.930Z,12.08
2023-04-14T12:03:36.170Z,12.11
2023-04-14T12:06:03.354Z,12.30
2023-04-14T12:08:31.582Z,12.35
2023-04-14T12:11:12.881Z,12.35
2023-04-14T12:13:43.309Z,12.27
2023-04-14T12:16:11.063Z,12.20
2023-04-14T12:18:40.072Z,12.26
2023-04-14T12:21:09.769Z,12.30
2023-04-14T12:23:41.749Z,12.30
2023-04-14T12:26:11.298Z,12.24
2023-04-14T12:28:41.151Z,12.16
2023-04-14T12:31:08.787Z,12.09
2023-04-14T12:33:35.805Z,12.11
2023-04-14T12:36:04.215Z,12.10
2023-04-14T12:38:30.805Z,12.11
2023-04-14T12:40:57.422Z,12.09
2023-04-14T12:43:42.224Z,12.11
2023-04-14T12:46:10.162Z,11.98
2023-04-14T12:48:45.309Z,11.92
2023-04-14T12:51:17.135Z,12.02
2023-04-14T12:53:45.025Z,12.03
2023-04-14T12:56:11.569Z,12.02
2023-04-14T12:58:42.266Z,11.93
2023-04-14T13:02:36.389Z,11.60
2023-04-14T13:05:05.250Z,11.91
2023-04-14T13:07:33.515Z,11.77
2023-04-14T13:10:02.781Z,11.89
2023-04-14T13:12:31.817Z,11.87
2023-04-14T13:15:00.468Z,11.91
2023-04-14T13:17:29.372Z,11.87
2023-04-14T13:19:57.508Z,11.83
2023-04-14T13:22:26.665Z,11.89
2023-04-14T13:24:58.086Z,11.95
2023-04-14T13:27:26.101Z,11.86
2023-04-14T13:29:56.060Z,11.92
2023-04-14T13:32:24.080Z,11.98
2023-04-14T13:34:52.797Z,12.04
2023-04-14T13:37:22.066Z,11.82
2023-04-14T13:39:50.127Z,11.80
2023-04-14T13:42:18.568Z,11.91
2023-04-14T13:44:47.652Z,12.09
2023-04-14T13:47:15.721Z,12.24
2023-04-14T13:49:44.670Z,12.30
2023-04-14T13:52:12.575Z,12.10
2023-04-14T13:54:41.093Z,12.19
2023-04-14T13:57:09.328Z,12.44
2023-04-14T13:59:38.440Z,12.28
2023-04-14T14:02:08.347Z,12.46
2023-04-14T14:04:38.270Z,12.43
2023-04-14T14:07:06.863Z,12.36
2023-04-14T14:09:35.064Z,12.17
2023-04-14T14:12:05.407Z,12.25
2023-04-14T14:14:34.667Z,12.33
2023-04-14T14:17:02.582Z,12.32
2023-04-14T14:19:32.012Z,12.47
2023-04-14T14:21:59.876Z,12.25
2023-04-14T14:24:28.882Z,12.33
2023-04-14T14:26:56.979Z,12.41
2023-04-14T14:29:24.985Z,12.27
2023-04-14T14:31:52.996Z,12.24
2023-04-14T14:34:21.246Z,12.32
2023-04-14T14:36:49.568Z,12.00
2023-04-14T14:39:21.636Z,11.98
2023-04-14T14:41:49.590Z,11.65
2023-04-14T14:44:18.003Z,11.69
2023-04-14T14:46:47.348Z,11.87
2023-04-14T14:49:15.627Z,11.90
2023-04-14T14:51:43.863Z,11.99
2023-04-14T14:54:12.052Z,12.04
2023-04-14T14:56:41.369Z,12.04
2023-04-14T14:59:09.420Z,11.95
2023-04-14T15:01:37.581Z,11.89
2023-04-14T15:04:06.785Z,11.75
2023-04-14T15:06:36.001Z,11.86
2023-04-14T15:09:05.495Z,11.89
2023-04-14T15:11:38.801Z,11.67
2023-04-14T15:14:06.946Z,11.60
2023-04-14T15:16:35.114Z,11.61
2023-04-14T15:19:05.028Z,11.60
2023-04-14T15:21:33.251Z,11.58
2023-04-14T15:24:01.926Z,11.50
2023-04-14T15:26:32.469Z,11.53
2023-04-14T15:29:02.654Z,11.62
2023-04-14T15:31:31.183Z,11.66
2023-04-14T15:34:00.488Z,11.64
2023-04-14T15:36:28.992Z,11.62
2023-04-14T15:38:57.160Z,11.68
2023-04-14T15:41:26.601Z,11.51
2023-04-14T15:43:54.523Z,11.60
2023-04-14T15:46:23.001Z,11.67
2023-04-14T15:48:51.301Z,11.62
2023-04-14T15:51:20.150Z,11.52
2023-04-14T15:53:48.114Z,11.44
2023-04-14T15:56:16.050Z,11.39
2023-04-14T15:58:45.659Z,11.36
2023-04-14T16:01:13.826Z,11.27
2023-04-14T16:03:43.438Z,11.20
2023-04-14T16:06:12.823Z,11.10
2023-04-14T16:08:41.501Z,11.20
2023-04-14T16:11:16.744Z,11.21
2023-04-14T16:13:56.947Z,11.16
2023-04-14T16:16:26.202Z,11.17
2023-04-14T16:18:55.540Z,11.20
2023-04-14T16:21:24.502Z,11.08
2023-04-14T16:23:55.401Z,11.26
2023-04-14T16:26:25.542Z,11.38
2023-04-14T16:29:03.426Z,11.28
2023-04-14T16:31:34.018Z,11.24
2023-04-14T16:34:05.260Z,11.15
2023-04-14T16:36:38.649Z,11.00
2023-04-14T16:39:16.607Z,11.10
2023-04-14T16:41:46.650Z,11.18
2023-04-14T16:44:15.209Z,11.21
2023-04-14T16:46:43.743Z,11.30
2023-04-14T16:49:13.944Z,11.25
2023-04-14T16:51:47.506Z,11.09
2023-04-14T16:54:17.255Z,11.01
2023-04-14T16:56:45.939Z,11.06
2023-04-14T16:59:15.563Z,11.19
2023-04-14T17:01:44.932Z,11.21
2023-04-14T17:04:14.320Z,11.00
2023-04-14T17:06:43.719Z,10.97
2023-04-14T17:09:12.159Z,11.09
2023-04-14T17:11:40.206Z,11.12
2023-04-14T17:14:09.186Z,11.08
2023-04-14T17:16:38.234Z,11.20
2023-04-14T17:19:06.248Z,11.19
2023-04-14T17:21:38.638Z,11.16
2023-04-14T17:24:11.738Z,11.19
2023-04-14T17:26:39.859Z,11.14
2023-04-14T17:29:07.775Z,11.14
2023-04-14T17:31:37.452Z,11.19
2023-04-14T17:34:10.710Z,11.12
2023-04-14T17:36:39.233Z,11.15
2023-04-14T17:39:10.440Z,11.21
2023-04-14T17:41:39.563Z,11.17
2023-04-14T17:44:08.672Z,11.03
2023-04-14T17:46:37.444Z,11.11
2023-04-14T17:49:05.825Z,11.19
2023-04-14T17:51:35.328Z,11.22
2023-04-14T17:54:06.043Z,11.08
2023-04-14T17:56:36.993Z,11.00
2023-04-14T17:59:06.843Z,11.02
2023-04-14T18:01:35.607Z,11.05
2023-04-14T18:04:04.597Z,11.04
2023-04-14T18:06:34.063Z,11.02
2023-04-14T18:09:05.629Z,11.05
2023-04-14T18:11:35.355Z,11.02
2023-04-14T18:14:03.866Z,10.86
2023-04-14T18:16:33.853Z,10.80
2023-04-14T18:19:02.207Z,10.87
2023-04-14T18:21:32.666Z,10.92
2023-04-14T18:26:39.704Z,10.84
2023-04-14T18:29:08.198Z,10.87
2023-04-14T18:31:38.089Z,10.88
2023-04-14T18:34:23.119Z,10.74
2023-04-14T18:36:51.412Z,10.82
2023-04-14T18:39:19.429Z,10.86
2023-04-14T18:41:49.304Z,10.79
2023-04-14T18:44:18.378Z,10.81
2023-04-14T18:46:46.449Z,10.66
2023-04-14T18:49:14.554Z,10.61
2023-04-14T18:51:43.393Z,10.72
2023-04-14T18:54:13.256Z,10.58
2023-04-14T18:56:45.027Z,10.56
2023-04-14T18:59:13.127Z,10.47
2023-04-14T19:01:41.448Z,10.40
2023-04-14T19:04:10.433Z,10.46
2023-04-14T19:06:40.836Z,10.52
2023-04-14T19:09:08.964Z,10.51
2023-04-14T19:11:42.406Z,10.41
2023-04-14T19:14:13.118Z,10.40
2023-04-14T19:16:41.161Z,10.45
2023-04-14T19:19:09.206Z,10.43
2023-04-14T19:21:40.394Z,10.33
2023-04-14T19:24:10.224Z,10.44
2023-04-14T19:26:40.965Z,10.33
2023-04-14T19:29:11.145Z,10.41
2023-04-14T19:31:40.916Z,10.48
2023-04-14T19:34:09.508Z,10.55
2023-04-14T19:36:40.320Z,10.57
2023-04-14T19:39:08.487Z,10.47
2023-04-14T19:41:36.894Z,10.40
2023-04-14T19:44:08.526Z,10.50
2023-04-14T19:46:37.506Z,10.53
2023-04-14T19:49:07.468Z,10.44
2023-04-14T19:51:36.680Z,10.50
2023-04-14T19:54:09.548Z,10.57
2023-04-14T19:56:38.315Z,10.52
2023-04-14T19:59:06.262Z,10.39
2023-04-14T20:01:37.113Z,10.30
2023-04-14T20:04:12.106Z,10.37
2023-04-14T20:06:41.402Z,10.39
2023-04-14T20:09:13.309Z,10.26
2023-04-14T20:11:41.718Z,10.20
2023-04-14T20:14:10.780Z,10.28
2023-04-14T20:16:40.709Z,10.36
2023-04-14T20:19:12.830Z,10.39
2023-04-14T20:21:41.113Z,10.32
2023-04-14T20:24:09.243Z,10.31
2023-04-14T20:26:42.825Z,10.37
2023-04-14T20:29:12.348Z,10.39
2023-04-14T20:31:42.776Z,10.26
2023-04-14T20:34:11.673Z,10.34
2023-04-14T20:36:40.630Z,10.44
2023-04-14T20:39:09.139Z,10.46
2023-04-14T20:41:38.353Z,10.39
2023-04-14T20:44:07.550Z,10.45
2023-04-14T20:46:35.810Z,10.51
2023-04-14T20:49:04.323Z,10.50
2023-04-14T20:51:33.903Z,10.50
2023-04-14T20:54:02.037Z,10.53
2023-04-14T20:56:35.251Z,10.57
2023-04-14T20:59:03.780Z,10.57
2023-04-14T21:01:32.669Z,10.44
2023-04-14T21:04:00.754Z,10.47
2023-04-14T21:06:31.750Z,10.53
2023-04-14T21:09:01.391Z,10.55
2023-04-14T21:11:29.818Z,10.55
2023-04-14T21:15:30.285Z,10.37
2023-04-14T21:16:46.710Z,10.49
2023-04-14T21:19:15.191Z,10.46
2023-04-14T21:21:45.447Z,10.34
2023-04-14T21:24:14.069Z,10.46
2023-04-14T21:26:42.476Z,10.52
2023-04-14T21:29:14.422Z,10.35
2023-04-14T21:31:42.822Z,10.39
2023-04-14T21:34:10.832Z,10.46
2023-04-14T21:36:39.437Z,10.35
2023-04-14T21:39:07.510Z,10.28
2023-04-14T21:41:35.959Z,10.41
2023-04-14T21:44:04.156Z,10.32
2023-04-14T21:46:35.693Z,10.26
2023-04-14T21:49:04.579Z,10.37
2023-04-14T21:51:32.852Z,10.25
2023-04-14T21:54:01.856Z,10.23
2023-04-14T21:56:31.491Z,10.37
2023-04-14T21:59:01.136Z,10.30
2023-04-14T22:01:31.880Z,10.19
2023-04-14T22:04:01.088Z,10.33
2023-04-14T22:06:29.738Z,10.32
2023-04-14T22:09:03.460Z,10.18
2023-04-14T22:11:32.419Z,10.28
2023-04-14T22:14:02.861Z,10.32
2023-04-14T22:16:37.808Z,10.20
2023-04-14T22:19:09.314Z,10.18
2023-04-14T22:21:38.026Z,10.33
2023-04-14T22:24:06.316Z,10.24
2023-04-14T22:26:34.399Z,10.13
2023-04-14T22:29:02.757Z,10.23
2023-04-14T22:31:31.320Z,10.18
2023-04-14T22:33:59.383Z,10.02
2023-04-14T22:36:29.149Z,10.07
2023-04-14T22:38:57.135Z,10.15
2023-04-14T22:41:25.146Z,9.99
2023-04-14T22:43:53.532Z,9.90
2023-04-14T22:46:25.069Z,10.02
2023-04-14T22:48:53.057Z,9.94
2023-04-14T22:51:21.590Z,9.81
2023-04-14T22:53:54.126Z,9.88
2023-04-14T22:56:23.278Z,9.96
2023-04-14T22:58:51.281Z,9.82
2023-04-14T23:01:24.560Z,9.74
2023-04-14T23:03:55.924Z,9.84
2023-04-14T23:06:24.265Z,9.85
2023-04-14T23:08:54.338Z,9.67
2023-04-14T23:11:23.539Z,9.58
2023-04-14T23:13:52.583Z,9.73
2023-04-14T23:16:22.423Z,9.68
2023-04-14T23:18:53.047Z,9.53
2023-04-14T23:21:24.813Z,9.64
2023-04-14T23:23:52.986Z,9.67
2023-04-14T23:26:27.589Z,9.50
2023-04-14T23:28:57.289Z,9.55
2023-04-14T23:31:28.252Z,9.63
2023-04-14T23:33:59.206Z,9.49
2023-04-14T23:36:28.783Z,9.42
2023-04-14T23:38:57.278Z,9.59
2023-04-14T23:41:26.695Z,9.59
2023-04-14T23:43:55.382Z,9.41
2023-04-14T23:46:23.834Z,9.42
2023-04-14T23:48:53.835Z,9.54
2023-04-14T23:51:24.003Z,9.51
2023-04-14T23:53:52.122Z,9.41
2023-04-14T23:56:24.256Z,9.22
2023-04-14T23:58:52.197Z,9.22
